sensor_id;sensor_type;location;lat;lon;timestamp;pressure;altitude;pressure_sealevel;temperature;humidity
12209;BME280;6167;43.080;25.634;2022-12-15T00:01:33;98773.91;;;7.91;100.00
12209;BME280;6167;43.080;25.634;2022-12-15T00:04:17;98767.59;;;7.57;100.00
12209;BME280;6167;43.080;25.634;2022-12-15T00:07:01;98761.28;;;7.80;100.00
12209;BME280;6167;43.080;25.634;2022-12-15T00:09:45;98773.69;;;7.58;100.00
12209;BME280;6167;43.080;25.634;2022-12-15T00:12:30;98744.03;;;7.54;100.00
12209;BME280;6167;43.080;25.634;2022-12-15T00:15:15;98755.81;;;7.66;100.00
12209;BME280;6167;43.080;25.634;2022-12-15T00:18:03;98752.88;;;7.72;100.00
12209;BME280;6167;43.080;25.634;2022-12-15T00:20:47;98760.28;;;7.64;100.00
12209;BME280;6167;43.080;25.634;2022-12-15T00:23:32;98767.66;;;7.75;100.00
12209;BME280;6167;43.080;25.634;2022-12-15T00:26:17;98761.78;;;7.88;100.00
12209;BME280;6167;43.080;25.634;2022-12-15T00:29:01;98768.31;;;7.80;100.00
12209;BME280;6167;43.080;25.634;2022-12-15T00:31:47;98765.03;;;7.75;100.00
12209;BME280;6167;43.080;25.634;2022-12-15T00:34:31;98744.97;;;7.91;100.00
12209;BME280;6167;43.080;25.634;2022-12-15T00:37:15;98753.78;;;7.71;100.00
12209;BME280;6167;43.080;25.634;2022-12-15T00:39:59;98744.28;;;7.69;100.00
12209;BME280;6167;43.080;25.634;2022-12-15T00:42:28;98754.88;;;7.86;100.00
12209;BME280;6167;43.080;25.634;2022-12-15T00:44:56;98756.16;;;7.77;100.00
12209;BME280;6167;43.080;25.634;2022-12-15T00:47:25;98750.16;;;7.74;100.00
12209;BME280;6167;43.080;25.634;2022-12-15T00:49:51;98768.75;;;7.89;100.00
12209;BME280;6167;43.080;25.634;2022-12-15T00:52:35;98777.31;;;8.12;100.00
12209;BME280;6167;43.080;25.634;2022-12-15T00:55:20;98772.66;;;8.00;100.00
12209;BME280;6167;43.080;25.634;2022-12-15T00:58:04;98788.38;;;8.01;100.00
12209;BME280;6167;43.080;25.634;2022-12-15T01:00:49;98791.84;;;8.20;100.00
12209;BME280;6167;43.080;25.634;2022-12-15T01:03:35;98797.53;;;8.11;100.00
12209;BME280;6167;43.080;25.634;2022-12-15T01:06:19;98803.50;;;8.15;100.00
12209;BME280;6167;43.080;25.634;2022-12-15T01:09:06;98796.41;;;7.98;100.00
12209;BME280;6167;43.080;25.634;2022-12-15T01:11:51;98820.69;;;7.47;100.00
12209;BME280;6167;43.080;25.634;2022-12-15T01:14:35;98814.16;;;6.95;100.00
12209;BME280;6167;43.080;25.634;2022-12-15T01:17:20;98811.00;;;6.86;100.00
12209;BME280;6167;43.080;25.634;2022-12-15T01:20:06;98812.31;;;5.87;100.00
12209;BME280;6167;43.080;25.634;2022-12-15T01:22:41;98822.78;;;5.64;100.00
12209;BME280;6167;43.080;25.634;2022-12-15T01:25:09;98827.84;;;5.45;100.00
12209;BME280;6167;43.080;25.634;2022-12-15T01:27:36;98832.41;;;5.40;100.00
12209;BME280;6167;43.080;25.634;2022-12-15T01:30:05;98834.34;;;5.10;100.00
12209;BME280;6167;43.080;25.634;2022-12-15T01:32:33;98849.06;;;5.14;100.00
12209;BME280;6167;43.080;25.634;2022-12-15T01:35:00;98849.00;;;5.16;100.00
12209;BME280;6167;43.080;25.634;2022-12-15T01:37:28;98843.63;;;4.94;100.00
12209;BME280;6167;43.080;25.634;2022-12-15T01:39:55;98828.41;;;4.79;100.00
12209;BME280;6167;43.080;25.634;2022-12-15T01:42:39;98845.75;;;4.83;100.00
12209;BME280;6167;43.080;25.634;2022-12-15T01:45:46;98848.78;;;4.43;100.00
12209;BME280;6167;43.080;25.634;2022-12-15T01:48:19;98842.28;;;4.28;100.00
12209;BME280;6167;43.080;25.634;2022-12-15T01:50:57;98839.84;;;4.22;100.00
12209;BME280;6167;43.080;25.634;2022-12-15T01:53:29;98824.84;;;3.99;100.00
12209;BME280;6167;43.080;25.634;2022-12-15T01:55:59;98828.00;;;3.81;100.00
12209;BME280;6167;43.080;25.634;2022-12-15T01:58:26;98816.78;;;4.07;100.00
12209;BME280;6167;43.080;25.634;2022-12-15T02:00:53;98800.38;;;3.72;100.00
12209;BME280;6167;43.080;25.634;2022-12-15T02:03:21;98796.47;;;3.27;100.00
12209;BME280;6167;43.080;25.634;2022-12-15T02:05:49;98791.78;;;3.07;100.00
12209;BME280;6167;43.080;25.634;2022-12-15T02:08:17;98786.41;;;3.44;100.00
12209;BME280;6167;43.080;25.634;2022-12-15T02:11:02;98780.25;;;3.14;100.00
12209;BME280;6167;43.080;25.634;2022-12-15T02:13:39;98782.16;;;3.09;100.00
12209;BME280;6167;43.080;25.634;2022-12-15T02:16:18;98783.94;;;3.07;100.00
12209;BME280;6167;43.080;25.634;2022-12-15T02:19:01;98766.63;;;3.34;100.00
12209;BME280;6167;43.080;25.634;2022-12-15T02:21:37;98766.50;;;3.09;100.00
12209;BME280;6167;43.080;25.634;2022-12-15T02:24:23;98790.38;;;2.94;100.00
12209;BME280;6167;43.080;25.634;2022-12-15T02:27:19;98778.84;;;3.33;100.00
12209;BME280;6167;43.080;25.634;2022-12-15T02:30:12;98771.94;;;3.32;100.00
12209;BME280;6167;43.080;25.634;2022-12-15T02:32:42;98777.63;;;2.83;100.00
12209;BME280;6167;43.080;25.634;2022-12-15T02:35:16;98774.56;;;3.00;100.00
12209;BME280;6167;43.080;25.634;2022-12-15T02:37:47;98776.50;;;3.24;100.00
12209;BME280;6167;43.080;25.634;2022-12-15T02:40:14;98774.88;;;3.20;100.00
12209;BME280;6167;43.080;25.634;2022-12-15T02:42:45;98782.91;;;3.13;100.00
12209;BME280;6167;43.080;25.634;2022-12-15T02:45:18;98783.69;;;3.16;100.00
12209;BME280;6167;43.080;25.634;2022-12-15T02:47:55;98771.13;;;3.30;100.00
12209;BME280;6167;43.080;25.634;2022-12-15T02:50:37;98791.03;;;3.02;100.00
12209;BME280;6167;43.080;25.634;2022-12-15T02:53:14;98794.28;;;3.12;100.00
12209;BME280;6167;43.080;25.634;2022-12-15T02:55:51;98787.88;;;3.22;100.00
12209;BME280;6167;43.080;25.634;2022-12-15T02:58:27;98798.38;;;3.20;100.00
12209;BME280;6167;43.080;25.634;2022-12-15T03:01:04;98798.53;;;3.14;100.00
12209;BME280;6167;43.080;25.634;2022-12-15T03:03:33;98799.63;;;3.38;100.00
12209;BME280;6167;43.080;25.634;2022-12-15T03:06:38;98778.47;;;3.16;100.00
12209;BME280;6167;43.080;25.634;2022-12-15T03:09:05;98772.13;;;2.92;100.00
12209;BME280;6167;43.080;25.634;2022-12-15T03:11:33;98772.56;;;2.77;100.00
12209;BME280;6167;43.080;25.634;2022-12-15T03:14:01;98776.63;;;3.20;100.00
12209;BME280;6167;43.080;25.634;2022-12-15T03:16:30;98760.38;;;3.10;100.00
12209;BME280;6167;43.080;25.634;2022-12-15T03:18:57;98747.31;;;3.10;100.00
12209;BME280;6167;43.080;25.634;2022-12-15T03:21:39;98772.25;;;3.20;100.00
12209;BME280;6167;43.080;25.634;2022-12-15T03:24:06;98776.88;;;3.41;100.00
12209;BME280;6167;43.080;25.634;2022-12-15T03:26:34;98777.91;;;3.05;100.00
12209;BME280;6167;43.080;25.634;2022-12-15T03:29:01;98797.16;;;3.01;100.00
12209;BME280;6167;43.080;25.634;2022-12-15T03:31:29;98822.94;;;3.13;100.00
12209;BME280;6167;43.080;25.634;2022-12-15T03:33:56;98848.69;;;3.28;100.00
12209;BME280;6167;43.080;25.634;2022-12-15T03:36:24;98835.16;;;3.13;100.00
12209;BME280;6167;43.080;25.634;2022-12-15T03:38:51;98820.72;;;2.65;100.00
12209;BME280;6167;43.080;25.634;2022-12-15T03:41:18;98841.63;;;2.98;100.00
12209;BME280;6167;43.080;25.634;2022-12-15T03:43:49;98822.28;;;3.06;100.00
12209;BME280;6167;43.080;25.634;2022-12-15T03:46:16;98804.56;;;2.85;100.00
12209;BME280;6167;43.080;25.634;2022-12-15T03:48:45;98789.28;;;2.70;100.00
12209;BME280;6167;43.080;25.634;2022-12-15T03:51:15;98814.47;;;3.05;100.00
12209;BME280;6167;43.080;25.634;2022-12-15T03:53:42;98799.78;;;3.01;100.00
12209;BME280;6167;43.080;25.634;2022-12-15T03:56:11;98825.69;;;3.08;100.00
12209;BME280;6167;43.080;25.634;2022-12-15T03:58:42;98841.59;;;2.99;100.00
12209;BME280;6167;43.080;25.634;2022-12-15T04:01:10;98830.66;;;3.18;100.00
12209;BME280;6167;43.080;25.634;2022-12-15T04:03:38;98805.03;;;2.99;100.00
12209;BME280;6167;43.080;25.634;2022-12-15T04:09:13;98867.72;;;2.99;100.00
12209;BME280;6167;43.080;25.634;2022-12-15T04:11:40;98857.56;;;3.21;100.00
12209;BME280;6167;43.080;25.634;2022-12-15T04:14:08;98835.00;;;2.86;100.00
12209;BME280;6167;43.080;25.634;2022-12-15T04:16:35;98804.63;;;2.48;100.00
12209;BME280;6167;43.080;25.634;2022-12-15T04:22:38;98861.25;;;2.80;100.00
12209;BME280;6167;43.080;25.634;2022-12-15T04:25:20;98908.50;;;2.69;100.00
12209;BME280;6167;43.080;25.634;2022-12-15T04:28:05;98878.41;;;2.53;100.00
12209;BME280;6167;43.080;25.634;2022-12-15T04:31:21;98915.69;;;2.95;100.00
12209;BME280;6167;43.080;25.634;2022-12-15T04:34:11;98942.88;;;2.88;100.00
12209;BME280;6167;43.080;25.634;2022-12-15T04:36:56;98946.41;;;2.49;100.00
12209;BME280;6167;43.080;25.634;2022-12-15T04:39:43;98946.00;;;2.65;100.00
12209;BME280;6167;43.080;25.634;2022-12-15T04:42:31;98963.63;;;2.93;100.00
12209;BME280;6167;43.080;25.634;2022-12-15T04:45:18;98981.28;;;2.83;100.00
12209;BME280;6167;43.080;25.634;2022-12-15T04:48:04;98982.72;;;2.95;100.00
12209;BME280;6167;43.080;25.634;2022-12-15T04:50:48;98993.44;;;2.84;100.00
12209;BME280;6167;43.080;25.634;2022-12-15T04:53:33;98993.09;;;2.98;100.00
12209;BME280;6167;43.080;25.634;2022-12-15T04:56:17;98992.72;;;2.78;100.00
12209;BME280;6167;43.080;25.634;2022-12-15T04:59:04;99002.69;;;2.97;100.00
12209;BME280;6167;43.080;25.634;2022-12-15T05:01:48;99005.13;;;3.05;100.00
12209;BME280;6167;43.080;25.634;2022-12-15T05:04:34;99024.63;;;2.90;100.00
12209;BME280;6167;43.080;25.634;2022-12-15T05:07:18;99041.50;;;2.74;100.00
12209;BME280;6167;43.080;25.634;2022-12-15T05:10:03;99048.00;;;2.95;100.00
12209;BME280;6167;43.080;25.634;2022-12-15T05:12:48;99058.31;;;3.02;100.00
12209;BME280;6167;43.080;25.634;2022-12-15T05:15:35;99066.84;;;3.10;100.00
12209;BME280;6167;43.080;25.634;2022-12-15T05:18:19;99076.09;;;3.24;100.00
12209;BME280;6167;43.080;25.634;2022-12-15T05:21:04;99067.34;;;3.26;100.00
12209;BME280;6167;43.080;25.634;2022-12-15T05:23:48;99054.56;;;3.13;100.00
12209;BME280;6167;43.080;25.634;2022-12-15T05:26:33;99085.25;;;3.04;100.00
12209;BME280;6167;43.080;25.634;2022-12-15T05:29:17;99091.22;;;3.09;100.00
12209;BME280;6167;43.080;25.634;2022-12-15T05:32:03;99078.84;;;3.18;100.00
12209;BME280;6167;43.080;25.634;2022-12-15T05:34:31;99075.56;;;3.09;100.00
12209;BME280;6167;43.080;25.634;2022-12-15T05:37:02;99075.03;;;2.94;100.00
12209;BME280;6167;43.080;25.634;2022-12-15T05:39:29;99071.22;;;3.08;100.00
12209;BME280;6167;43.080;25.634;2022-12-15T05:41:57;99098.84;;;3.19;100.00
12209;BME280;6167;43.080;25.634;2022-12-15T05:44:24;99127.03;;;3.04;100.00
12209;BME280;6167;43.080;25.634;2022-12-15T05:46:52;99125.50;;;2.94;100.00
12209;BME280;6167;43.080;25.634;2022-12-15T05:49:20;99132.91;;;3.14;100.00
12209;BME280;6167;43.080;25.634;2022-12-15T05:51:55;99139.28;;;3.41;100.00
12209;BME280;6167;43.080;25.634;2022-12-15T05:54:22;99137.13;;;3.21;100.00
12209;BME280;6167;43.080;25.634;2022-12-15T05:56:49;99122.75;;;3.02;100.00
12209;BME280;6167;43.080;25.634;2022-12-15T05:59:17;99147.06;;;3.44;100.00
12209;BME280;6167;43.080;25.634;2022-12-15T06:01:45;99120.06;;;3.43;100.00
12209;BME280;6167;43.080;25.634;2022-12-15T06:04:12;99147.91;;;3.44;100.00
12209;BME280;6167;43.080;25.634;2022-12-15T06:07:12;99167.31;;;3.33;100.00
12209;BME280;6167;43.080;25.634;2022-12-15T06:13:02;99157.16;;;3.59;100.00
12209;BME280;6167;43.080;25.634;2022-12-15T06:15:30;99091.59;;;2.91;100.00
12209;BME280;6167;43.080;25.634;2022-12-15T06:17:59;99127.16;;;3.37;100.00
12209;BME280;6167;43.080;25.634;2022-12-15T06:20:26;99122.53;;;3.50;100.00
12209;BME280;6167;43.080;25.634;2022-12-15T06:23:15;99159.06;;;3.53;100.00
12209;BME280;6167;43.080;25.634;2022-12-15T06:25:43;99155.66;;;3.49;100.00
12209;BME280;6167;43.080;25.634;2022-12-15T06:28:10;99149.16;;;4.01;100.00
12209;BME280;6167;43.080;25.634;2022-12-15T06:30:37;99167.41;;;4.38;100.00
12209;BME280;6167;43.080;25.634;2022-12-15T06:33:05;99182.56;;;3.91;100.00
12209;BME280;6167;43.080;25.634;2022-12-15T06:35:35;99194.94;;;3.83;100.00
12209;BME280;6167;43.080;25.634;2022-12-15T06:38:03;99182.56;;;3.91;100.00
12209;BME280;6167;43.080;25.634;2022-12-15T06:40:31;99175.19;;;3.71;100.00
12209;BME280;6167;43.080;25.634;2022-12-15T06:42:58;99204.97;;;3.64;100.00
12209;BME280;6167;43.080;25.634;2022-12-15T06:45:31;99190.66;;;3.80;100.00
12209;BME280;6167;43.080;25.634;2022-12-15T06:47:59;99203.34;;;3.96;100.00
12209;BME280;6167;43.080;25.634;2022-12-15T06:50:27;99203.28;;;3.99;100.00
12209;BME280;6167;43.080;25.634;2022-12-15T06:52:55;99217.88;;;3.72;100.00
12209;BME280;6167;43.080;25.634;2022-12-15T06:55:22;99212.16;;;3.93;100.00
12209;BME280;6167;43.080;25.634;2022-12-15T06:57:51;99215.31;;;4.06;100.00
12209;BME280;6167;43.080;25.634;2022-12-15T07:00:18;99216.66;;;3.87;100.00
12209;BME280;6167;43.080;25.634;2022-12-15T07:02:45;99214.25;;;3.77;100.00
12209;BME280;6167;43.080;25.634;2022-12-15T07:05:12;99220.56;;;4.06;100.00
12209;BME280;6167;43.080;25.634;2022-12-15T07:07:39;99213.03;;;3.94;100.00
12209;BME280;6167;43.080;25.634;2022-12-15T07:10:07;99234.88;;;3.91;100.00
12209;BME280;6167;43.080;25.634;2022-12-15T07:12:35;99233.22;;;5.51;100.00
12209;BME280;6167;43.080;25.634;2022-12-15T07:15:05;99215.47;;;5.61;100.00
12209;BME280;6167;43.080;25.634;2022-12-15T07:17:38;99246.78;;;5.05;100.00
12209;BME280;6167;43.080;25.634;2022-12-15T07:20:06;99237.66;;;4.55;100.00
12209;BME280;6167;43.080;25.634;2022-12-15T07:22:33;99204.72;;;4.12;100.00
12209;BME280;6167;43.080;25.634;2022-12-15T07:25:01;99248.84;;;4.26;100.00
12209;BME280;6167;43.080;25.634;2022-12-15T07:27:28;99253.00;;;4.36;100.00
12209;BME280;6167;43.080;25.634;2022-12-15T07:29:55;99248.53;;;4.73;100.00
12209;BME280;6167;43.080;25.634;2022-12-15T07:32:23;99253.50;;;4.50;100.00
12209;BME280;6167;43.080;25.634;2022-12-15T07:34:50;99248.66;;;4.35;100.00
12209;BME280;6167;43.080;25.634;2022-12-15T07:37:17;99251.66;;;4.54;100.00
12209;BME280;6167;43.080;25.634;2022-12-15T07:39:46;99224.84;;;4.44;100.00
12209;BME280;6167;43.080;25.634;2022-12-15T07:42:14;99236.25;;;4.75;100.00
12209;BME280;6167;43.080;25.634;2022-12-15T07:44:41;99267.44;;;5.17;100.00
12209;BME280;6167;43.080;25.634;2022-12-15T07:47:10;99270.28;;;5.08;100.00
12209;BME280;6167;43.080;25.634;2022-12-15T07:49:39;99281.16;;;4.94;100.00
12209;BME280;6167;43.080;25.634;2022-12-15T07:52:06;99248.22;;;4.84;100.00
12209;BME280;6167;43.080;25.634;2022-12-15T07:54:34;99282.44;;;5.10;100.00
12209;BME280;6167;43.080;25.634;2022-12-15T07:57:02;99272.81;;;4.78;100.00
12209;BME280;6167;43.080;25.634;2022-12-15T07:59:35;99269.47;;;4.38;100.00
12209;BME280;6167;43.080;25.634;2022-12-15T08:02:03;99251.91;;;4.07;100.00
12209;BME280;6167;43.080;25.634;2022-12-15T08:04:30;99268.84;;;4.30;100.00
12209;BME280;6167;43.080;25.634;2022-12-15T08:06:59;99290.69;;;4.63;100.00
12209;BME280;6167;43.080;25.634;2022-12-15T08:09:26;99293.75;;;4.44;100.00
12209;BME280;6167;43.080;25.634;2022-12-15T08:11:54;99313.47;;;4.59;100.00
12209;BME280;6167;43.080;25.634;2022-12-15T08:14:20;99300.56;;;4.86;100.00
12209;BME280;6167;43.080;25.634;2022-12-15T08:16:47;99306.16;;;4.73;100.00
12209;BME280;6167;43.080;25.634;2022-12-15T08:19:15;99317.44;;;4.75;100.00
12209;BME280;6167;43.080;25.634;2022-12-15T08:21:44;99321.22;;;4.98;100.00
12209;BME280;6167;43.080;25.634;2022-12-15T08:24:14;99336.25;;;4.91;100.00
12209;BME280;6167;43.080;25.634;2022-12-15T08:26:42;99342.94;;;4.67;100.00
12209;BME280;6167;43.080;25.634;2022-12-15T08:29:10;99329.72;;;4.73;100.00
12209;BME280;6167;43.080;25.634;2022-12-15T08:31:38;99331.25;;;4.46;100.00
12209;BME280;6167;43.080;25.634;2022-12-15T08:34:06;99311.47;;;4.35;100.00
12209;BME280;6167;43.080;25.634;2022-12-15T08:36:34;99324.47;;;4.38;100.00
12209;BME280;6167;43.080;25.634;2022-12-15T08:39:02;99327.84;;;4.43;100.00
12209;BME280;6167;43.080;25.634;2022-12-15T08:41:31;99347.81;;;4.47;100.00
12209;BME280;6167;43.080;25.634;2022-12-15T08:44:00;99314.81;;;4.40;100.00
12209;BME280;6167;43.080;25.634;2022-12-15T08:46:28;99325.16;;;4.46;100.00
12209;BME280;6167;43.080;25.634;2022-12-15T08:48:56;99328.72;;;4.42;100.00
12209;BME280;6167;43.080;25.634;2022-12-15T08:51:25;99339.19;;;4.42;100.00
12209;BME280;6167;43.080;25.634;2022-12-15T08:53:53;99328.72;;;4.42;100.00
12209;BME280;6167;43.080;25.634;2022-12-15T08:56:21;99314.16;;;4.32;100.00
12209;BME280;6167;43.080;25.634;2022-12-15T08:58:54;99323.69;;;4.34;100.00
12209;BME280;6167;43.080;25.634;2022-12-15T09:01:22;99322.06;;;4.29;100.00
12209;BME280;6167;43.080;25.634;2022-12-15T09:03:51;99314.13;;;4.33;100.00
12209;BME280;6167;43.080;25.634;2022-12-15T09:06:20;99320.19;;;4.35;100.00
12209;BME280;6167;43.080;25.634;2022-12-15T09:08:48;99323.31;;;4.49;100.00
12209;BME280;6167;43.080;25.634;2022-12-15T09:11:15;99315.38;;;4.54;100.00
12209;BME280;6167;43.080;25.634;2022-12-15T09:13:41;99316.72;;;4.69;100.00
12209;BME280;6167;43.080;25.634;2022-12-15T09:16:13;99318.53;;;4.67;100.00
12209;BME280;6167;43.080;25.634;2022-12-15T09:18:42;99327.00;;;4.78;100.00
12209;BME280;6167;43.080;25.634;2022-12-15T09:21:11;99316.13;;;4.58;100.00
12209;BME280;6167;43.080;25.634;2022-12-15T09:23:38;99316.59;;;4.75;100.00
12209;BME280;6167;43.080;25.634;2022-12-15T09:26:07;99318.19;;;4.79;100.00
12209;BME280;6167;43.080;25.634;2022-12-15T09:28:34;99300.91;;;4.73;100.00
12209;BME280;6167;43.080;25.634;2022-12-15T09:31:02;99320.69;;;4.85;100.00
12209;BME280;6167;43.080;25.634;2022-12-15T09:34:01;99320.44;;;4.94;100.00
12209;BME280;6167;43.080;25.634;2022-12-15T09:36:29;99325.81;;;4.90;100.00
12209;BME280;6167;43.080;25.634;2022-12-15T09:38:57;99314.56;;;4.84;100.00
12209;BME280;6167;43.080;25.634;2022-12-15T09:41:25;99317.81;;;4.94;100.00
12209;BME280;6167;43.080;25.634;2022-12-15T09:43:55;99316.06;;;4.95;100.00
12209;BME280;6167;43.080;25.634;2022-12-15T09:46:34;99322.88;;;5.00;100.00
12209;BME280;6167;43.080;25.634;2022-12-15T09:49:10;99321.16;;;4.99;100.00
12209;BME280;6167;43.080;25.634;2022-12-15T09:51:44;99326.00;;;5.16;100.00
12209;BME280;6167;43.080;25.634;2022-12-15T09:54:12;99317.03;;;5.23;100.00
12209;BME280;6167;43.080;25.634;2022-12-15T09:56:43;99306.50;;;4.94;100.00
12209;BME280;6167;43.080;25.634;2022-12-15T09:59:22;99308.25;;;4.93;100.00
12209;BME280;6167;43.080;25.634;2022-12-15T10:02:02;99308.00;;;5.02;100.00
12209;BME280;6167;43.080;25.634;2022-12-15T10:04:42;99315.53;;;4.80;100.00
12209;BME280;6167;43.080;25.634;2022-12-15T10:07:23;99320.22;;;4.69;100.00
12209;BME280;6167;43.080;25.634;2022-12-15T10:09:56;99316.19;;;4.56;100.00
12209;BME280;6167;43.080;25.634;2022-12-15T10:12:35;99287.47;;;4.53;100.00
12209;BME280;6167;43.080;25.634;2022-12-15T10:15:19;99339.94;;;4.82;100.00
12209;BME280;6167;43.080;25.634;2022-12-15T10:17:59;99353.88;;;4.84;100.00
12209;BME280;6167;43.080;25.634;2022-12-15T10:20:51;99323.09;;;4.93;100.00
12209;BME280;6167;43.080;25.634;2022-12-15T10:23:20;99323.25;;;4.87;100.00
12209;BME280;6167;43.080;25.634;2022-12-15T10:25:49;99304.13;;;4.83;100.00
12209;BME280;6167;43.080;25.634;2022-12-15T10:28:33;99342.91;;;5.03;100.00
12209;BME280;6167;43.080;25.634;2022-12-15T10:31:12;99362.09;;;5.05;100.00
12209;BME280;6167;43.080;25.634;2022-12-15T10:33:42;99358.72;;;5.96;100.00
12209;BME280;6167;43.080;25.634;2022-12-15T10:36:14;99348.81;;;6.87;100.00
12209;BME280;6167;43.080;25.634;2022-12-15T10:38:43;99353.69;;;6.17;100.00
12209;BME280;6167;43.080;25.634;2022-12-15T10:41:16;99333.97;;;5.73;100.00
12209;BME280;6167;43.080;25.634;2022-12-15T10:43:48;99357.19;;;5.58;100.00
12209;BME280;6167;43.080;25.634;2022-12-15T10:46:26;99349.72;;;5.42;100.00
12209;BME280;6167;43.080;25.634;2022-12-15T10:49:22;99339.44;;;5.35;100.00
12209;BME280;6167;43.080;25.634;2022-12-15T10:51:53;99332.75;;;5.23;100.00
12209;BME280;6167;43.080;25.634;2022-12-15T10:54:26;99337.38;;;5.15;100.00
12209;BME280;6167;43.080;25.634;2022-12-15T10:56:58;99342.28;;;5.27;100.00
12209;BME280;6167;43.080;25.634;2022-12-15T10:59:28;99339.63;;;5.29;100.00
12209;BME280;6167;43.080;25.634;2022-12-15T11:02:26;99342.22;;;5.29;100.00
12209;BME280;6167;43.080;25.634;2022-12-15T11:04:54;99343.78;;;5.36;100.00
12209;BME280;6167;43.080;25.634;2022-12-15T11:07:25;99330.81;;;5.31;100.00
12209;BME280;6167;43.080;25.634;2022-12-15T11:09:58;99328.63;;;5.47;100.00
12209;BME280;6167;43.080;25.634;2022-12-15T11:12:29;99334.63;;;5.20;100.00
12209;BME280;6167;43.080;25.634;2022-12-15T11:15:43;99351.34;;;5.15;100.00
12209;BME280;6167;43.080;25.634;2022-12-15T11:18:31;99343.13;;;5.28;100.00
12209;BME280;6167;43.080;25.634;2022-12-15T11:21:04;99341.38;;;5.28;100.00
12209;BME280;6167;43.080;25.634;2022-12-15T11:23:44;99336.78;;;5.67;100.00
12209;BME280;6167;43.080;25.634;2022-12-15T11:26:22;99323.69;;;5.36;100.00
12209;BME280;6167;43.080;25.634;2022-12-15T11:28:55;99340.06;;;5.12;100.00
12209;BME280;6167;43.080;25.634;2022-12-15T11:31:31;99339.81;;;5.21;100.00
12209;BME280;6167;43.080;25.634;2022-12-15T11:34:00;99329.91;;;5.32;100.00
12209;BME280;6167;43.080;25.634;2022-12-15T11:36:45;99334.09;;;5.39;100.00
12209;BME280;6167;43.080;25.634;2022-12-15T11:39:33;99337.34;;;5.47;100.00
12209;BME280;6167;43.080;25.634;2022-12-15T11:42:10;99339.41;;;5.67;100.00
12209;BME280;6167;43.080;25.634;2022-12-15T11:44:45;99335.59;;;6.08;100.00
12209;BME280;6167;43.080;25.634;2022-12-15T11:47:22;99344.53;;;6.59;100.00
12209;BME280;6167;43.080;25.634;2022-12-15T11:50:02;99334.88;;;6.85;100.00
12209;BME280;6167;43.080;25.634;2022-12-15T11:52:45;99339.03;;;7.17;100.00
12209;BME280;6167;43.080;25.634;2022-12-15T11:55:22;99337.53;;;7.35;100.00
12209;BME280;6167;43.080;25.634;2022-12-15T11:58:11;99314.91;;;7.78;100.00
12209;BME280;6167;43.080;25.634;2022-12-15T12:00:50;99325.72;;;7.93;100.00
12209;BME280;6167;43.080;25.634;2022-12-15T12:03:29;99324.25;;;8.10;100.00
12209;BME280;6167;43.080;25.634;2022-12-15T12:06:09;99331.56;;;8.02;100.00
12209;BME280;6167;43.080;25.634;2022-12-15T12:08:50;99325.44;;;8.46;100.00
12209;BME280;6167;43.080;25.634;2022-12-15T12:11:26;99321.03;;;8.69;100.00
12209;BME280;6167;43.080;25.634;2022-12-15T12:14:08;99315.72;;;8.48;100.00
12209;BME280;6167;43.080;25.634;2022-12-15T12:16:45;99320.00;;;8.06;100.00
12209;BME280;6167;43.080;25.634;2022-12-15T12:19:18;99330.09;;;8.40;100.00
12209;BME280;6167;43.080;25.634;2022-12-15T12:21:49;99311.06;;;8.10;100.00
12209;BME280;6167;43.080;25.634;2022-12-15T12:24:22;99329.66;;;8.28;100.00
12209;BME280;6167;43.080;25.634;2022-12-15T12:26:53;99327.53;;;8.38;100.00
12209;BME280;6167;43.080;25.634;2022-12-15T12:32:58;99312.09;;;8.93;100.00
12209;BME280;6167;43.080;25.634;2022-12-15T12:35:36;99314.09;;;9.08;100.00
12209;BME280;6167;43.080;25.634;2022-12-15T12:38:04;99310.31;;;8.93;100.00
12209;BME280;6167;43.080;25.634;2022-12-15T12:40:42;99309.50;;;8.71;100.00
12209;BME280;6167;43.080;25.634;2022-12-15T12:43:25;99316.97;;;8.60;100.00
12209;BME280;6167;43.080;25.634;2022-12-15T12:45:56;99317.53;;;8.46;100.00
12209;BME280;6167;43.080;25.634;2022-12-15T12:48:28;99326.84;;;8.32;100.00
12209;BME280;6167;43.080;25.634;2022-12-15T12:51:11;99338.41;;;8.29;100.00
12209;BME280;6167;43.080;25.634;2022-12-15T12:53:39;99336.06;;;8.87;100.00
12209;BME280;6167;43.080;25.634;2022-12-15T12:56:06;99340.31;;;8.91;100.00
12209;BME280;6167;43.080;25.634;2022-12-15T12:58:37;99341.38;;;8.65;100.00
12209;BME280;6167;43.080;25.634;2022-12-15T13:01:17;99352.38;;;8.53;100.00
12209;BME280;6167;43.080;25.634;2022-12-15T13:03:45;99352.84;;;8.42;100.00
12209;BME280;6167;43.080;25.634;2022-12-15T13:06:21;99352.59;;;8.48;100.00
12209;BME280;6167;43.080;25.634;2022-12-15T13:08:52;99329.78;;;8.02;100.00
12209;BME280;6167;43.080;25.634;2022-12-15T13:11:54;99366.44;;;8.08;100.00
12209;BME280;6167;43.080;25.634;2022-12-15T13:14:45;99361.72;;;7.93;100.00
12209;BME280;6167;43.080;25.634;2022-12-15T13:17:47;99371.38;;;7.92;100.00
12209;BME280;6167;43.080;25.634;2022-12-15T13:20:24;99378.47;;;8.14;100.00
12209;BME280;6167;43.080;25.634;2022-12-15T13:22:54;99372.25;;;7.93;100.00
12209;BME280;6167;43.080;25.634;2022-12-15T13:25:36;99408.44;;;7.88;100.00
12209;BME280;6167;43.080;25.634;2022-12-15T13:28:17;99390.66;;;7.70;100.00
12209;BME280;6167;43.080;25.634;2022-12-15T13:31:18;99398.72;;;7.65;100.00
12209;BME280;6167;43.080;25.634;2022-12-15T13:33:51;99406.47;;;7.45;100.00
12209;BME280;6167;43.080;25.634;2022-12-15T13:36:43;99412.88;;;7.36;100.00
12209;BME280;6167;43.080;25.634;2022-12-15T13:42:32;99424.81;;;7.46;100.00
12209;BME280;6167;43.080;25.634;2022-12-15T13:45:12;99437.22;;;7.16;100.00
12209;BME280;6167;43.080;25.634;2022-12-15T13:47:50;99438.69;;;6.99;100.00
12209;BME280;6167;43.080;25.634;2022-12-15T13:50:31;99404.94;;;6.59;100.00
12209;BME280;6167;43.080;25.634;2022-12-15T13:53:01;99443.41;;;6.61;100.00
12209;BME280;6167;43.080;25.634;2022-12-15T13:55:36;99434.06;;;6.51;100.00
12209;BME280;6167;43.080;25.634;2022-12-15T13:58:09;99427.38;;;6.41;100.00